createdAt,value
2018-03-28T00:03:50.806Z,24.53
2018-03-28T00:08:24.052Z,17.03
2018-03-28T00:12:57.337Z,17.93
2018-03-28T00:17:30.548Z,19.40
2018-03-28T00:22:03.836Z,17.53
2018-03-28T00:26:37.102Z,18.10
2018-03-28T00:31:10.374Z,24.90
2018-03-28T00:35:43.658Z,19.73
2018-03-28T00:40:16.952Z,27.87
2018-03-28T00:44:50.975Z,28.13
2018-03-28T00:49:25.201Z,21.17
2018-03-28T00:53:58.442Z,20.07
2018-03-28T00:58:31.740Z,22.43
2018-03-28T01:03:04.961Z,22.43
2018-03-28T01:07:38.368Z,26.33
2018-03-28T01:12:11.753Z,15.07
2018-03-28T01:16:45.749Z,14.00
2018-03-28T01:21:19.117Z,19.53
2018-03-28T01:25:52.398Z,17.47
2018-03-28T01:30:25.723Z,15.87
2018-03-28T01:34:59.012Z,18.97
2018-03-28T01:39:33.031Z,13.40
2018-03-28T01:44:06.252Z,14.17
2018-03-28T01:48:40.294Z,12.53
2018-03-28T01:53:13.609Z,12.50
2018-03-28T01:57:46.863Z,14.13
2018-03-28T02:02:20.180Z,14.10
2018-03-28T02:06:53.425Z,12.03
2018-03-28T02:11:26.728Z,15.17
2018-03-28T02:16:00.749Z,16.73
2018-03-28T02:20:34.776Z,14.00
2018-03-28T02:25:08.832Z,13.17
2018-03-28T02:29:43.024Z,13.23
2018-03-28T02:34:17.056Z,13.37
2018-03-28T02:38:51.050Z,12.00
2018-03-28T02:43:24.321Z,12.07
2018-03-28T02:47:57.587Z,14.47
2018-03-28T02:52:31.636Z,13.53
2018-03-28T02:57:04.897Z,12.13
2018-03-28T03:01:38.176Z,10.97
2018-03-28T03:06:11.547Z,10.60
2018-03-28T03:10:46.280Z,13.20
2018-03-28T03:15:19.589Z,9.83
2018-03-28T03:19:52.910Z,12.70
2018-03-28T03:24:26.934Z,13.57
2018-03-28T03:29:01.910Z,12.40
2018-03-28T03:33:35.174Z,13.53
2018-03-28T03:38:08.426Z,13.93
2018-03-28T03:42:41.776Z,14.33
2018-03-28T03:47:15.016Z,11.43
2018-03-28T03:51:49.056Z,9.90
2018-03-28T03:56:22.374Z,8.13
2018-03-28T04:00:55.641Z,10.10
2018-03-28T04:05:30.414Z,9.23
2018-03-28T04:10:04.661Z,11.23
2018-03-28T04:14:37.911Z,8.30
2018-03-28T04:19:11.804Z,8.33
2018-03-28T04:23:45.048Z,18.70
2018-03-28T04:28:18.264Z,12.73
2018-03-28T04:32:51.608Z,17.83
2018-03-28T04:37:25.556Z,14.80
2018-03-28T04:41:58.807Z,16.10
2018-03-28T04:46:32.052Z,12.07
2018-03-28T04:51:05.566Z,12.23
2018-03-28T04:55:38.779Z,11.77
2018-03-28T05:00:12.014Z,15.13
2018-03-28T05:04:45.280Z,11.13
2018-03-28T05:09:18.557Z,25.20
2018-03-28T05:13:52.392Z,11.07
2018-03-28T05:18:26.434Z,12.97
2018-03-28T05:22:59.643Z,16.07
2018-03-28T05:27:33.323Z,16.43
2018-03-28T05:32:06.787Z,19.53
2018-03-28T05:36:40.007Z,14.50
2018-03-28T05:41:13.255Z,21.83
2018-03-28T05:45:46.516Z,12.20
2018-03-28T05:50:19.787Z,17.30
2018-03-28T05:54:53.048Z,11.90
2018-03-28T05:59:26.303Z,10.97
2018-03-28T06:04:00.451Z,12.50
2018-03-28T06:08:33.719Z,11.00
2018-03-28T06:13:06.936Z,12.27
2018-03-28T06:17:40.202Z,11.70
2018-03-28T06:22:13.455Z,9.07
2018-03-28T06:26:46.787Z,15.80
2018-03-28T06:31:20.037Z,13.43
2018-03-28T06:35:53.287Z,17.23
2018-03-28T06:40:27.264Z,12.67
2018-03-28T06:45:00.498Z,14.27
2018-03-28T06:49:33.748Z,17.53
2018-03-28T06:54:07.040Z,14.00
2018-03-28T06:58:41.016Z,13.07
2018-03-28T07:03:14.290Z,12.00
2018-03-28T07:07:47.530Z,11.47
2018-03-28T07:12:20.954Z,16.13
2018-03-28T07:16:54.216Z,10.63
2018-03-28T07:21:27.607Z,16.07
2018-03-28T07:26:01.590Z,10.93
2018-03-28T07:30:34.840Z,8.43
2018-03-28T07:35:08.873Z,11.30
2018-03-28T07:39:42.901Z,14.23
2018-03-28T07:44:16.178Z,10.27
2018-03-28T07:48:49.440Z,11.07
2018-03-28T07:53:22.732Z,9.20
2018-03-28T07:57:55.992Z,11.17
2018-03-28T08:02:29.231Z,11.60
2018-03-28T08:07:08.025Z,6.87
2018-03-28T08:11:41.296Z,10.73
2018-03-28T08:16:14.572Z,10.50
2018-03-28T08:20:47.799Z,7.60
2018-03-28T08:25:21.836Z,8.97
2018-03-28T08:29:55.145Z,7.07
2018-03-28T08:34:28.403Z,10.60
2018-03-28T08:39:01.656Z,7.17
2018-03-28T08:43:34.953Z,10.40
2018-03-28T08:48:08.973Z,9.17
2018-03-28T08:52:43.333Z,7.60
2018-03-28T08:57:16.575Z,9.57
2018-03-28T09:01:49.829Z,10.50
2018-03-28T09:06:24.161Z,8.73
2018-03-28T09:10:58.338Z,7.20
2018-03-28T09:15:31.599Z,10.60
2018-03-28T09:20:05.661Z,7.60
2018-03-28T09:24:38.927Z,8.67
2018-03-28T09:29:12.942Z,6.43
2018-03-28T09:33:46.514Z,10.33
2018-03-28T09:38:19.742Z,9.20
2018-03-28T09:42:53.012Z,8.93
2018-03-28T09:47:26.313Z,5.03
2018-03-28T09:52:01.163Z,14.10
2018-03-28T09:56:34.560Z,21.07
2018-03-28T10:01:08.627Z,20.67
2018-03-28T10:05:41.898Z,11.00
2018-03-28T10:10:16.108Z,11.43
2018-03-28T10:14:49.369Z,10.40
2018-03-28T10:19:22.925Z,10.67
2018-03-28T10:23:57.276Z,8.87
2018-03-28T10:28:31.494Z,10.53
2018-03-28T10:33:05.491Z,13.20
2018-03-28T10:37:38.769Z,8.73
2018-03-28T10:42:12.016Z,18.73
2018-03-28T10:46:45.279Z,9.83
2018-03-28T10:51:18.541Z,8.47
2018-03-28T10:55:51.849Z,12.70
2018-03-28T11:00:25.088Z,13.20
2018-03-28T11:04:59.234Z,12.57
2018-03-28T11:09:32.496Z,8.93
2018-03-28T11:14:05.860Z,10.50
2018-03-28T11:18:39.156Z,11.07
2018-03-28T11:23:12.412Z,10.83
2018-03-28T11:27:45.664Z,9.60
2018-03-28T11:32:19.666Z,13.77
2018-03-28T11:36:52.948Z,10.37
2018-03-28T11:41:26.199Z,11.50
2018-03-28T11:46:00.324Z,13.40
2018-03-28T11:50:34.886Z,13.67
2018-03-28T11:55:08.132Z,14.70
2018-03-28T11:59:41.386Z,7.70
2018-03-28T12:04:15.441Z,13.10
2018-03-28T12:08:48.815Z,11.37
2018-03-28T12:13:22.842Z,7.50
2018-03-28T12:17:56.825Z,7.50
2018-03-28T12:22:30.091Z,10.97
2018-03-28T12:27:03.481Z,7.27
2018-03-28T12:31:37.478Z,6.93
2018-03-28T12:36:10.737Z,6.43
2018-03-28T12:40:44.010Z,5.50
2018-03-28T12:45:17.277Z,6.60
2018-03-28T12:49:50.736Z,7.67
2018-03-28T12:54:24.884Z,6.37
2018-03-28T12:58:58.923Z,7.10
2018-03-28T13:03:32.287Z,7.87
2018-03-28T13:08:06.342Z,4.63
2018-03-28T13:12:39.716Z,3.33
2018-03-28T13:17:13.018Z,4.40
2018-03-28T13:21:46.293Z,4.57
2018-03-28T13:26:20.178Z,4.90
2018-03-28T13:30:54.176Z,4.60
2018-03-28T13:35:27.643Z,9.33
2018-03-28T13:40:01.166Z,8.27
2018-03-28T13:44:34.419Z,4.83
2018-03-28T13:49:07.965Z,6.70
2018-03-28T13:53:41.303Z,8.77
2018-03-28T13:58:17.564Z,7.57
2018-03-28T14:02:50.900Z,14.20
2018-03-28T14:07:24.187Z,4.57
2018-03-28T14:11:57.468Z,6.57
2018-03-28T14:16:31.710Z,5.80
2018-03-28T14:21:06.276Z,6.63
2018-03-28T14:25:39.553Z,3.20
2018-03-28T14:30:14.527Z,4.53
2018-03-28T14:34:47.751Z,4.97
2018-03-28T14:39:21.191Z,8.57
2018-03-28T14:43:54.767Z,6.37
2018-03-28T14:48:28.233Z,8.60
2018-03-28T14:53:01.824Z,5.73
2018-03-28T14:57:35.065Z,4.37
2018-03-28T15:02:08.372Z,5.23
2018-03-28T15:06:42.620Z,8.47
2018-03-28T15:11:16.336Z,7.13
2018-03-28T15:15:49.660Z,11.13
2018-03-28T15:20:22.914Z,19.67
2018-03-28T15:24:56.233Z,6.40
2018-03-28T15:29:29.570Z,6.13
2018-03-28T15:34:03.645Z,6.50
2018-03-28T15:38:36.879Z,5.60
2018-03-28T15:43:10.125Z,4.03
2018-03-28T15:47:43.375Z,5.57
2018-03-28T15:52:16.729Z,7.23
2018-03-28T15:56:50.729Z,3.73
2018-03-28T16:01:24.001Z,6.10
2018-03-28T16:05:57.281Z,5.90
2018-03-28T16:10:31.277Z,4.73
2018-03-28T16:15:04.672Z,3.80
2018-03-28T16:19:38.809Z,3.47
2018-03-28T16:24:12.079Z,2.33
2018-03-28T16:28:45.335Z,6.50
2018-03-28T16:33:20.103Z,5.17
2018-03-28T16:37:54.086Z,3.40
2018-03-28T16:42:28.153Z,2.50
2018-03-28T16:47:02.200Z,2.10
2018-03-28T16:51:35.463Z,2.57
2018-03-28T16:56:09.574Z,1.93
2018-03-28T17:00:42.816Z,3.87
2018-03-28T17:05:16.908Z,3.20
2018-03-28T17:09:50.157Z,3.37
2018-03-28T17:14:24.356Z,3.93
2018-03-28T17:18:57.611Z,3.57
2018-03-28T17:23:30.859Z,5.50
2018-03-28T17:28:04.138Z,5.93
2018-03-28T17:32:37.343Z,5.27
2018-03-28T17:37:10.643Z,3.70
2018-03-28T17:41:43.965Z,3.00
2018-03-28T17:46:17.191Z,2.40
2018-03-28T17:50:50.444Z,5.97
2018-03-28T17:55:24.486Z,5.07
2018-03-28T17:59:57.761Z,4.13
2018-03-28T18:04:31.204Z,5.20
2018-03-28T18:09:04.529Z,6.10
2018-03-28T18:13:37.792Z,9.43
2018-03-28T18:18:11.803Z,10.67
2018-03-28T18:22:45.764Z,6.37
2018-03-28T18:27:19.797Z,9.90
2018-03-28T18:31:53.671Z,5.93
2018-03-28T18:36:26.918Z,5.00
2018-03-28T18:41:01.047Z,5.27
2018-03-28T18:45:34.593Z,3.93
2018-03-28T18:50:07.941Z,4.50
2018-03-28T18:54:41.588Z,4.23
2018-03-28T18:59:15.205Z,2.70
2018-03-28T19:03:49.369Z,4.63
2018-03-28T19:08:23.064Z,4.03
2018-03-28T19:12:57.688Z,3.13
2018-03-28T19:17:32.426Z,3.53
2018-03-28T19:22:06.786Z,3.07
2018-03-28T19:26:40.094Z,3.63
2018-03-28T19:31:13.372Z,2.63
2018-03-28T19:35:46.652Z,3.23
2018-03-28T19:40:19.917Z,3.40
2018-03-28T19:44:53.202Z,2.67
2018-03-28T19:49:27.393Z,3.30
2018-03-28T19:54:00.657Z,3.07
2018-03-28T19:58:34.057Z,3.27
2018-03-28T20:03:08.596Z,3.00
2018-03-28T20:07:41.977Z,3.73
2018-03-28T20:12:15.268Z,3.23
2018-03-28T20:16:48.786Z,4.37
2018-03-28T20:21:22.077Z,4.10
2018-03-28T20:25:55.453Z,5.97
2018-03-28T20:30:29.464Z,4.10
2018-03-28T20:35:02.706Z,3.40
2018-03-28T20:39:36.234Z,3.43
2018-03-28T20:44:09.492Z,5.37
2018-03-28T20:48:42.816Z,6.00
2018-03-28T20:53:16.982Z,7.60
2018-03-28T20:57:50.461Z,9.97
2018-03-28T21:02:23.770Z,7.67
2018-03-28T21:06:57.790Z,6.77
2018-03-28T21:11:31.220Z,4.10
2018-03-28T21:16:04.566Z,6.30
2018-03-28T21:20:37.827Z,4.53
2018-03-28T21:25:11.921Z,8.37
2018-03-28T21:29:46.190Z,4.67
2018-03-28T21:34:19.512Z,4.93
2018-03-28T21:38:52.901Z,5.20
2018-03-28T21:43:27.567Z,5.53
2018-03-28T21:48:01.528Z,5.87
2018-03-28T21:52:34.808Z,5.27
2018-03-28T21:57:08.068Z,6.47
2018-03-28T22:01:41.300Z,6.33
2018-03-28T22:06:15.535Z,5.90
2018-03-28T22:10:49.392Z,6.40
2018-03-28T22:15:22.849Z,6.50
2018-03-28T22:19:56.907Z,7.30
2018-03-28T22:24:30.333Z,7.47
2018-03-28T22:29:03.727Z,8.20
2018-03-28T22:33:37.083Z,8.60
2018-03-28T22:38:10.403Z,8.20
2018-03-28T22:42:43.668Z,8.67
2018-03-28T22:47:16.944Z,8.83
2018-03-28T22:51:50.961Z,9.77
2018-03-28T22:56:24.968Z,11.03
2018-03-28T23:00:58.219Z,9.57
2018-03-28T23:05:31.458Z,10.33
2018-03-28T23:10:05.140Z,10.33
2018-03-28T23:14:38.436Z,11.33
2018-03-28T23:19:12.601Z,14.73
2018-03-28T23:23:45.844Z,23.07
2018-03-28T23:28:20.100Z,23.00
2018-03-28T23:32:54.123Z,19.33
2018-03-28T23:37:28.170Z,19.63
2018-03-28T23:42:02.156Z,21.80
2018-03-28T23:46:36.917Z,18.57
2018-03-28T23:51:10.953Z,14.03
2018-03-28T23:55:45.806Z,13.20
